Time;durP1;ratioP1;P1;durP2;ratioP2;P2;SDS_P1;SDS_P2;PMS_P1;PMS_P2;Temp;Humidity;BMP_temperature;BMP_pressure;BME280_temperature;BME280_humidity;BME280_pressure;Samples;Min_cycle;Max_cycle;Signal;HPM_P1;HPM_P2
2022/09/30 00:01:15;;;;;;;7.83;6.20;;;;;;;17.28;100.00;94517.75;5112689;28;20798;-79
2022/09/30 00:03:42;;;;;;;7.80;7.00;;;;;;;17.29;100.00;94538.78;5112458;28;20446;-79
2022/09/30 00:06:09;;;;;;;14.00;6.90;;;;;;;17.31;100.00;94544.72;5112894;28;20467;-79
2022/09/30 00:08:37;;;;;;;6.73;6.10;;;;;;;17.33;100.00;94552.50;5112488;28;20503;-79
2022/09/30 00:11:07;;;;;;;13.70;6.70;;;;;;;17.26;100.00;94556.88;5112615;28;20490;-79
2022/09/30 00:13:36;;;;;;;7.20;6.30;;;;;;;17.23;100.00;94555.41;5093862;28;20959;-80
2022/09/30 00:16:03;;;;;;;8.23;6.97;;;;;;;17.21;100.00;94554.78;5112175;28;20457;-78
2022/09/30 00:18:31;;;;;;;6.87;6.17;;;;;;;17.28;100.00;94554.88;5113025;28;20435;-79
2022/09/30 00:20:58;;;;;;;8.77;6.20;;;;;;;17.27;100.00;94567.31;5112294;28;20933;-79
2022/09/30 00:23:26;;;;;;;8.20;6.43;;;;;;;17.28;100.00;94563.66;5112651;28;20499;-79
2022/09/30 00:25:58;;;;;;;7.47;6.87;;;;;;;17.20;100.00;94557.59;5112381;28;20435;-79
2022/09/30 00:28:27;;;;;;;12.10;6.73;;;;;;;17.19;100.00;94548.81;5112692;28;20452;-79
2022/09/30 00:30:54;;;;;;;13.20;5.70;;;;;;;17.22;100.00;94567.03;5076104;28;20471;-79
2022/09/30 00:33:21;;;;;;;8.00;6.63;;;;;;;17.10;100.00;94552.56;5112665;28;20438;-79
2022/09/30 00:35:47;;;;;;;7.10;6.40;;;;;;;17.11;100.00;94566.63;5112500;28;20446;-78
2022/09/30 00:38:14;;;;;;;7.93;6.40;;;;;;;17.10;100.00;94565.81;5114642;28;20445;-79
2022/09/30 00:40:41;;;;;;;8.27;7.20;;;;;;;17.07;100.00;94571.47;5116122;28;20933;-79
2022/09/30 00:43:13;;;;;;;7.20;6.03;;;;;;;17.04;100.00;94559.38;5115745;28;20521;-79
2022/09/30 00:45:49;;;;;;;23.90;6.90;;;;;;;16.99;100.00;94560.91;5116130;28;20475;-80
2022/09/30 00:48:20;;;;;;;7.20;6.50;;;;;;;16.87;100.00;94554.38;5116476;28;20757;-79
2022/09/30 00:50:54;;;;;;;11.90;6.87;;;;;;;16.95;100.00;94563.09;5115830;28;20477;-79
2022/09/30 00:53:29;;;;;;;7.50;6.77;;;;;;;16.96;100.00;94569.22;5115882;28;20528;-79
2022/09/30 00:56:00;;;;;;;9.63;5.80;;;;;;;16.93;100.00;94557.16;5096857;28;20489;-79
2022/09/30 00:58:31;;;;;;;7.50;6.37;;;;;;;16.76;100.00;94529.09;5115741;28;20465;-79
2022/09/30 01:01:01;;;;;;;6.80;5.83;;;;;;;16.72;100.00;94562.25;5115540;28;20439;-79
2022/09/30 01:03:31;;;;;;;10.77;7.00;;;;;;;16.76;100.00;94568.03;5115641;28;20454;-80
2022/09/30 01:05:57;;;;;;;7.80;6.57;;;;;;;16.70;100.00;94567.72;5115493;28;20508;-79
2022/09/30 01:08:25;;;;;;;10.30;7.23;;;;;;;16.57;100.00;94566.63;5115557;28;20435;-78
2022/09/30 01:10:52;;;;;;;8.53;7.73;;;;;;;16.24;100.00;94571.28;5115138;28;20487;-80
2022/09/30 01:13:21;;;;;;;9.73;8.10;;;;;;;16.20;100.00;94564.69;5115440;28;20796;-79
2022/09/30 01:16:11;;;;;;;11.90;9.10;;;;;;;16.08;100.00;94557.09;5115227;28;20544;-80
2022/09/30 01:18:50;;;;;;;11.50;8.50;;;;;;;16.20;100.00;94562.03;5114988;28;20448;-79
2022/09/30 01:21:59;;;;;;;10.67;8.37;;;;;;;16.26;100.00;94554.22;5115653;28;20456;-79
2022/09/30 01:24:57;;;;;;;9.40;6.87;;;;;;;16.32;100.00;94550.88;5115365;28;20443;-78
2022/09/30 01:27:47;;;;;;;14.30;7.10;;;;;;;16.41;100.00;94556.94;5115198;28;20443;-79
2022/09/30 01:30:20;;;;;;;7.70;6.83;;;;;;;16.46;100.00;94549.28;5114851;28;20899;-79
2022/09/30 01:33:16;;;;;;;8.70;6.67;;;;;;;16.54;100.00;94551.91;5114832;28;20444;-79
2022/09/30 01:35:58;;;;;;;7.90;7.10;;;;;;;16.57;100.00;94559.50;5031962;28;20455;-79
2022/09/30 01:38:28;;;;;;;9.73;6.63;;;;;;;16.57;100.00;94556.03;5031835;28;20439;-77
2022/09/30 01:41:04;;;;;;;12.13;6.17;;;;;;;16.47;100.00;94550.13;5031889;28;20971;-78
2022/09/30 01:43:43;;;;;;;9.40;7.47;;;;;;;16.46;100.00;94559.06;5031767;28;20442;-79
2022/09/30 01:46:18;;;;;;;9.70;7.47;;;;;;;16.44;100.00;94546.00;5031796;28;20445;-78
2022/09/30 01:48:57;;;;;;;10.40;8.73;;;;;;;16.35;100.00;94552.34;5031442;28;20446;-79
2022/09/30 01:51:33;;;;;;;9.93;8.40;;;;;;;16.39;100.00;94551.81;4998857;28;20569;-79
2022/09/30 01:54:06;;;;;;;10.13;8.40;;;;;;;16.39;100.00;94548.34;5031600;28;20478;-79
2022/09/30 01:56:39;;;;;;;8.80;7.57;;;;;;;16.39;100.00;94558.94;5031593;28;20449;-80
2022/09/30 01:59:12;;;;;;;8.97;8.03;;;;;;;16.29;100.00;94563.63;5031736;28;20449;-78
2022/09/30 02:01:46;;;;;;;9.53;6.97;;;;;;;16.32;100.00;94556.16;5031463;28;20525;-78
2022/09/30 02:04:19;;;;;;;12.10;7.97;;;;;;;16.31;100.00;94548.41;4982825;28;20464;-78
2022/09/30 02:06:52;;;;;;;7.90;7.10;;;;;;;16.39;100.00;94561.59;5031361;28;20438;-79
2022/09/30 02:09:22;;;;;;;11.10;7.67;;;;;;;16.37;100.00;94555.66;5031504;28;20448;-79
2022/09/30 02:11:49;;;;;;;9.67;6.60;;;;;;;16.33;100.00;94557.81;5039676;28;20517;-79
2022/09/30 02:14:21;;;;;;;8.27;7.47;;;;;;;16.36;100.00;94564.59;5113905;28;20951;-79
2022/09/30 02:16:54;;;;;;;7.60;6.77;;;;;;;16.35;100.00;94568.22;5114244;28;20477;-79
2022/09/30 02:19:30;;;;;;;7.87;6.93;;;;;;;16.32;100.00;94561.47;5113957;28;20438;-79
2022/09/30 02:22:00;;;;;;;7.30;6.70;;;;;;;16.30;100.00;94571.41;5114305;28;20455;-79
2022/09/30 02:24:30;;;;;;;7.60;6.80;;;;;;;16.32;100.00;94568.59;5113778;28;20829;-79
2022/09/30 02:27:01;;;;;;;9.63;7.30;;;;;;;16.30;100.00;94568.75;5114093;28;20524;-79
2022/09/30 02:29:33;;;;;;;10.40;7.00;;;;;;;16.32;100.00;94577.34;5113531;28;20809;-79
2022/09/30 02:32:04;;;;;;;7.33;6.37;;;;;;;16.28;100.00;94591.13;5113772;28;20517;-79
2022/09/30 02:34:39;;;;;;;8.80;7.00;;;;;;;16.11;100.00;94588.50;5113961;28;20495;-79
2022/09/30 02:37:12;;;;;;;9.50;7.20;;;;;;;16.15;100.00;94588.16;5113788;27;20484;-79
2022/09/30 02:39:43;;;;;;;8.07;7.27;;;;;;;16.13;100.00;94584.88;5113770;28;20439;-78
2022/09/30 02:42:15;;;;;;;10.40;6.97;;;;;;;15.82;100.00;94571.56;5113371;28;20446;-78
2022/09/30 02:44:42;;;;;;;8.60;7.03;;;;;;;15.88;100.00;94573.53;5113575;28;20437;-79
2022/09/30 02:47:15;;;;;;;9.10;7.63;;;;;;;15.79;100.00;94556.88;5094510;28;20450;-79
2022/09/30 02:49:48;;;;;;;8.00;6.23;;;;;;;15.83;100.00;94565.28;5113545;28;20487;-81
2022/09/30 02:52:28;;;;;;;8.37;7.50;;;;;;;15.86;100.00;94564.94;5114008;28;20546;-79
2022/09/30 02:55:10;;;;;;;7.77;7.07;;;;;;;15.56;100.00;94556.72;5114464;28;20514;-79
2022/09/30 02:57:43;;;;;;;9.37;7.90;;;;;;;15.61;100.00;94556.25;5114110;28;20431;-79
2022/09/30 03:00:11;;;;;;;11.97;7.60;;;;;;;15.72;100.00;94571.78;5113754;28;20438;-79
2022/09/30 03:02:38;;;;;;;59.67;12.47;;;;;;;15.61;100.00;94572.13;5114385;28;20436;-78
2022/09/30 03:08:31;;;;;;;12.03;8.20;;;;;;;15.68;100.00;94581.88;5114129;28;20400;-78
2022/09/30 03:10:58;;;;;;;14.67;9.60;;;;;;;15.73;100.00;94584.00;5114247;28;20833;-79
2022/09/30 03:13:54;;;;;;;29.73;11.40;;;;;;;15.80;100.00;94585.81;5114227;28;20423;-78
2022/09/30 03:16:33;;;;;;;116.37;15.17;;;;;;;15.84;100.00;94590.75;5113592;28;20473;-79
2022/09/30 03:23:24;;;;;;;38.60;11.77;;;;;;;15.89;100.00;94594.53;5114053;28;20498;-79
2022/09/30 03:26:02;;;;;;;17.63;11.87;;;;;;;15.87;100.00;94598.34;5113946;28;20796;-78
2022/09/30 03:28:33;;;;;;;22.57;11.13;;;;;;;15.90;100.00;94598.00;5112360;28;20443;-77
2022/09/30 03:31:25;;;;;;;23.87;10.93;;;;;;;15.95;100.00;94593.88;5113644;28;20474;-78
2022/09/30 03:33:56;;;;;;;21.50;10.80;;;;;;;16.00;100.00;94612.72;5113724;28;20429;-79
2022/09/30 03:36:32;;;;;;;61.40;12.67;;;;;;;15.98;100.00;94600.66;5111579;28;20453;-78
2022/09/30 03:39:05;;;;;;;24.47;13.07;;;;;;;15.78;100.00;94586.97;5112432;28;20476;-79
2022/09/30 03:41:40;;;;;;;32.53;13.40;;;;;;;15.85;100.00;94603.81;5112773;28;20476;-80
2022/09/30 03:44:14;;;;;;;90.03;14.70;;;;;;;15.90;100.00;94596.22;5112702;28;20786;-78
2022/09/30 03:46:45;;;;;;;58.40;11.70;;;;;;;15.80;100.00;94590.28;5112457;28;20447;-79
2022/09/30 03:49:16;;;;;;;23.10;11.40;;;;;;;15.80;100.00;94598.22;5113513;28;20456;-79
2022/09/30 03:51:42;;;;;;;28.23;11.57;;;;;;;15.91;100.00;94616.38;5114236;28;20482;-79
2022/09/30 03:54:12;;;;;;;61.03;13.20;;;;;;;15.88;100.00;94613.22;5113079;28;20450;-80
2022/09/30 03:56:42;;;;;;;28.43;12.80;;;;;;;15.92;100.00;94614.56;5114184;28;20447;-80
2022/09/30 03:59:11;;;;;;;31.17;11.70;;;;;;;15.95;100.00;94614.22;5113534;28;20445;-79
2022/09/30 04:01:49;;;;;;;50.03;13.17;;;;;;;16.02;100.00;94629.25;5113376;28;20546;-80
2022/09/30 04:04:16;;;;;;;26.97;11.13;;;;;;;16.07;100.00;94626.91;5113738;28;20441;-78
2022/09/30 04:06:43;;;;;;;32.20;12.67;;;;;;;16.05;100.00;94618.31;5113887;28;20436;-79
2022/09/30 04:09:10;;;;;;;37.23;12.13;;;;;;;16.13;100.00;94622.75;5113543;28;20438;-81
2022/09/30 04:11:37;;;;;;;42.77;12.93;;;;;;;16.20;100.00;94625.56;5115311;28;20470;-78
2022/09/30 04:14:08;;;;;;;24.90;11.97;;;;;;;16.21;100.00;94632.50;5117377;28;20458;-79
2022/09/30 04:16:35;;;;;;;33.23;12.47;;;;;;;16.20;100.00;94618.44;5117415;28;20481;-79
2022/09/30 04:19:02;;;;;;;95.40;14.53;;;;;;;15.88;100.00;94611.41;5117649;28;20454;-79
2022/09/30 04:21:29;;;;;;;31.17;13.27;;;;;;;15.90;100.00;94622.69;5117472;28;20431;-79
2022/09/30 04:23:56;;;;;;;16.93;11.23;;;;;;;15.94;100.00;94626.63;5117231;28;20486;-79
2022/09/30 04:33:12;;;;;;;18.37;10.70;;;;;;;15.96;100.00;94618.53;5096694;28;20548;-79
2022/09/30 04:35:38;;;;;;;23.67;11.67;;;;;;;15.96;100.00;94637.88;5102656;28;20848;-79
2022/09/30 04:38:06;;;;;;;12.80;10.70;;;;;;;15.96;100.00;94645.81;5115153;28;20441;-78
2022/09/30 04:40:36;;;;;;;25.07;12.47;;;;;;;16.00;100.00;94633.88;5115682;28;20445;-79
2022/09/30 04:43:02;;;;;;;21.80;12.07;;;;;;;16.04;100.00;94639.66;5115382;28;20861;-78
2022/09/30 04:45:29;;;;;;;21.20;12.70;;;;;;;16.10;100.00;94644.28;5107007;28;20465;-80
2022/09/30 04:47:56;;;;;;;34.73;14.40;;;;;;;16.06;100.00;94642.97;5115144;28;20442;-79
2022/09/30 04:50:25;;;;;;;90.83;15.53;;;;;;;15.95;100.00;94638.88;5115518;28;20457;-78
2022/09/30 04:52:51;;;;;;;30.33;11.90;;;;;;;15.99;100.00;94647.28;5115248;28;20475;-78
2022/09/30 04:55:18;;;;;;;25.73;12.20;;;;;;;16.06;100.00;94653.56;5079621;28;20447;-78
2022/09/30 04:57:45;;;;;;;25.77;11.87;;;;;;;16.09;100.00;94667.28;5115689;28;20537;-79
2022/09/30 05:00:13;;;;;;;21.50;13.40;;;;;;;15.98;100.00;94682.69;5115454;28;20451;-78
2022/09/30 05:02:42;;;;;;;32.20;14.20;;;;;;;15.89;100.00;94687.16;5115596;28;20474;-79
2022/09/30 05:05:09;;;;;;;48.90;13.93;;;;;;;15.90;100.00;94680.03;5096784;28;20446;-79
2022/09/30 05:07:37;;;;;;;18.77;12.43;;;;;;;15.97;100.00;94675.75;5115236;28;20462;-79
2022/09/30 05:10:06;;;;;;;16.80;12.27;;;;;;;16.01;100.00;94674.41;5115478;28;20443;-79
2022/09/30 05:12:33;;;;;;;27.47;13.73;;;;;;;16.07;100.00;94682.50;5079552;28;20484;-79
2022/09/30 05:15:00;;;;;;;43.07;12.90;;;;;;;16.04;100.00;94664.31;5115281;28;20444;-79
2022/09/30 05:17:29;;;;;;;16.27;13.43;;;;;;;16.17;100.00;94665.59;5115074;28;20486;-77
2022/09/30 05:19:56;;;;;;;18.63;13.23;;;;;;;16.28;100.00;94675.84;5115153;28;20443;-80
2022/09/30 05:22:23;;;;;;;18.40;11.50;;;;;;;16.54;100.00;94670.28;5114678;28;20944;-78
2022/09/30 05:24:51;;;;;;;11.40;9.53;;;;;;;16.40;100.00;94671.81;5114825;28;20780;-78
2022/09/30 05:27:19;;;;;;;15.37;11.13;;;;;;;16.40;100.00;94683.25;5115143;28;20780;-77
2022/09/30 05:29:46;;;;;;;11.87;10.03;;;;;;;16.46;100.00;94694.13;5114915;28;20431;-79
2022/09/30 05:32:13;;;;;;;14.97;10.23;;;;;;;16.50;100.00;94701.59;5114810;28;21017;-79
2022/09/30 05:34:39;;;;;;;14.10;10.23;;;;;;;16.50;100.00;94701.59;5115309;28;20443;-78
2022/09/30 05:37:07;;;;;;;16.87;10.67;;;;;;;16.61;100.00;94705.69;5114501;28;20447;-79
2022/09/30 05:39:34;;;;;;;13.33;10.07;;;;;;;16.66;100.00;94704.22;5114931;28;20454;-79
2022/09/30 05:42:02;;;;;;;13.30;11.13;;;;;;;16.66;100.00;94713.97;5115031;28;20488;-79
2022/09/30 05:44:29;;;;;;;12.90;11.57;;;;;;;16.58;100.00;94716.63;5114993;28;20466;-79
2022/09/30 05:46:56;;;;;;;14.87;11.80;;;;;;;16.51;100.00;94719.16;5114940;28;20475;-79
2022/09/30 05:49:23;;;;;;;16.90;13.80;;;;;;;16.56;100.00;94716.81;5114815;28;20446;-79
2022/09/30 05:51:50;;;;;;;14.17;11.80;;;;;;;16.60;100.00;94718.13;5114560;28;20479;-79
2022/09/30 05:54:17;;;;;;;14.23;11.23;;;;;;;16.66;100.00;94727.22;5095136;28;20948;-79
2022/09/30 05:56:44;;;;;;;16.63;12.27;;;;;;;16.74;100.00;94727.19;5114513;28;20807;-79
2022/09/30 05:59:12;;;;;;;14.83;12.10;;;;;;;16.83;100.00;94726.19;5114257;28;20447;-78
2022/09/30 06:01:39;;;;;;;17.87;12.63;;;;;;;16.96;100.00;94736.22;5114393;28;20756;-79
2022/09/30 06:04:05;;;;;;;15.00;11.63;;;;;;;17.22;100.00;94742.06;5114580;28;20434;-79
2022/09/30 06:06:32;;;;;;;21.17;11.73;;;;;;;17.45;100.00;94746.56;5114622;28;20443;-78
2022/09/30 06:08:59;;;;;;;17.20;12.30;;;;;;;17.52;100.00;94742.19;5114658;28;20443;-80
2022/09/30 06:11:26;;;;;;;13.97;12.43;;;;;;;17.49;100.00;94731.94;5114571;27;20479;-77
2022/09/30 06:13:53;;;;;;;17.33;12.03;;;;;;;17.24;100.00;94753.31;5114107;28;20451;-79
2022/09/30 06:16:22;;;;;;;15.73;12.27;;;;;;;17.50;100.00;94746.88;5114003;28;20482;-80
2022/09/30 06:18:49;;;;;;;11.70;9.93;;;;;;;17.50;100.00;94738.91;5114104;28;20482;-79
2022/09/30 06:21:18;;;;;;;16.73;12.33;;;;;;;17.74;99.23;94737.94;5114305;28;20845;-78
2022/09/30 06:23:45;;;;;;;14.63;12.37;;;;;;;17.89;98.78;94744.94;5114032;28;20441;-79
2022/09/30 06:26:13;;;;;;;13.90;11.60;;;;;;;18.07;97.79;94749.13;5114155;28;20478;-78
2022/09/30 06:28:40;;;;;;;15.47;11.47;;;;;;;18.19;97.40;94747.66;5113886;28;20907;-79
2022/09/30 06:31:08;;;;;;;12.20;10.90;;;;;;;18.24;95.82;94755.94;5113750;28;20460;-79
2022/09/30 06:33:36;;;;;;;15.53;12.63;;;;;;;18.09;94.50;94739.16;5113621;28;20479;-77
2022/09/30 06:36:05;;;;;;;17.80;11.90;;;;;;;17.84;96.63;94742.00;5113089;28;20976;-79
2022/09/30 06:38:31;;;;;;;16.83;12.63;;;;;;;17.65;97.87;94745.13;5113756;28;20454;-79
2022/09/30 06:40:59;;;;;;;25.13;16.00;;;;;;;17.68;98.80;94758.06;5113544;28;20526;-79
2022/09/30 06:43:28;;;;;;;22.57;14.00;;;;;;;17.65;98.28;94753.91;5113447;28;20988;-80
2022/09/30 06:45:55;;;;;;;20.40;15.17;;;;;;;18.06;98.72;94763.41;5113380;28;20500;-79
2022/09/30 06:48:23;;;;;;;22.00;15.73;;;;;;;18.10;97.78;94756.72;5113797;28;20462;-79
2022/09/30 06:50:54;;;;;;;29.53;16.70;;;;;;;18.46;96.67;94757.72;5113274;28;20509;-79
2022/09/30 06:53:23;;;;;;;22.43;14.73;;;;;;;18.93;95.50;94769.88;5113137;28;20475;-79
2022/09/30 06:55:55;;;;;;;27.77;17.60;;;;;;;19.31;92.54;94775.88;5113547;28;20435;-79
2022/09/30 06:58:24;;;;;;;24.17;15.70;;;;;;;19.36;92.94;94785.94;5113922;28;20450;-80
2022/09/30 07:00:57;;;;;;;17.00;14.73;;;;;;;19.40;92.17;94792.59;5113060;28;20474;-78
2022/09/30 07:03:28;;;;;;;22.00;14.90;;;;;;;19.49;91.86;94786.13;5113359;28;20493;-79
2022/09/30 07:06:00;;;;;;;14.47;12.90;;;;;;;19.70;90.79;94783.53;5113547;28;20449;-78
2022/09/30 07:08:30;;;;;;;20.37;15.13;;;;;;;20.08;90.68;94788.63;5113425;28;20443;-79
2022/09/30 07:10:57;;;;;;;23.17;16.53;;;;;;;20.15;88.69;94797.50;5093983;28;20450;-78
2022/09/30 07:13:24;;;;;;;19.40;15.17;;;;;;;20.18;87.72;94797.09;5113215;28;21034;-78
2022/09/30 07:15:55;;;;;;;26.40;15.40;;;;;;;20.33;87.47;94805.03;5114053;28;20447;-78
2022/09/30 07:18:22;;;;;;;23.00;14.37;;;;;;;20.58;87.42;94805.50;5113477;28;20521;-79
2022/09/30 07:20:50;;;;;;;15.97;13.63;;;;;;;20.94;86.88;94803.47;5113231;28;20450;-78
2022/09/30 07:23:18;;;;;;;16.07;13.17;;;;;;;21.46;85.63;94814.69;5112698;28;20451;-77
2022/09/30 07:25:50;;;;;;;24.57;15.23;;;;;;;21.90;83.03;94822.22;5112850;28;20439;-79
2022/09/30 07:28:17;;;;;;;17.30;14.37;;;;;;;22.14;81.11;94820.88;5113051;28;20471;-78
2022/09/30 07:30:44;;;;;;;24.10;15.50;;;;;;;22.22;79.80;94834.03;5112933;28;20825;-79
2022/09/30 07:33:15;;;;;;;27.30;14.90;;;;;;;22.30;79.65;94846.41;5113404;28;20474;-80
2022/09/30 07:35:51;;;;;;;21.10;15.77;;;;;;;22.42;80.69;94845.59;5112514;28;20838;-79
2022/09/30 07:38:20;;;;;;;19.23;15.23;;;;;;;22.63;79.92;94836.56;5112855;28;20477;-78
2022/09/30 07:40:57;;;;;;;22.93;15.07;;;;;;;22.84;79.38;94833.72;5113065;28;20500;-79
2022/09/30 07:43:24;;;;;;;18.70;14.10;;;;;;;22.50;78.92;94832.03;5112695;28;20431;-80
2022/09/30 07:45:54;;;;;;;19.90;14.30;;;;;;;22.65;80.64;94833.69;5094162;28;20446;-79
2022/09/30 07:51:06;;;;;;;19.23;14.97;;;;;;;22.79;78.44;94829.97;5117043;28;20576;-78
2022/09/30 07:53:34;;;;;;;24.23;15.67;;;;;;;22.94;76.69;94835.16;5117079;28;20486;-78
2022/09/30 07:56:03;;;;;;;21.33;12.60;;;;;;;22.84;77.00;94828.38;5117207;28;20457;-79
2022/09/30 07:58:30;;;;;;;20.77;14.33;;;;;;;22.67;76.36;94820.94;5116663;28;20898;-79
2022/09/30 08:00:57;;;;;;;18.70;14.83;;;;;;;22.81;77.24;94828.75;5116734;28;20492;-80
2022/09/30 08:03:23;;;;;;;23.77;15.63;;;;;;;23.03;76.97;94836.56;5116888;28;20848;-80
2022/09/30 08:05:50;;;;;;;24.73;13.40;;;;;;;23.02;76.03;94842.94;5116397;27;20450;-80
2022/09/30 08:08:18;;;;;;;22.73;14.93;;;;;;;23.25;77.15;94856.72;5116997;28;20443;-78
2022/09/30 08:10:46;;;;;;;12.00;10.27;;;;;;;23.14;72.05;94860.03;5116318;28;20446;-77
2022/09/30 08:13:15;;;;;;;12.37;10.30;;;;;;;23.11;73.62;94860.44;5116580;28;20482;-80
2022/09/30 08:15:43;;;;;;;14.07;10.73;;;;;;;22.95;74.53;94856.34;5116217;28;20925;-79
2022/09/30 08:18:10;;;;;;;19.77;13.30;;;;;;;22.80;75.41;94859.19;5116203;28;20483;-79
2022/09/30 08:20:37;;;;;;;18.70;13.50;;;;;;;22.57;76.08;94848.09;5116582;28;20449;-79
2022/09/30 08:23:03;;;;;;;14.30;9.70;;;;;;;22.42;77.55;94847.44;5116527;28;20955;-78
2022/09/30 08:25:30;;;;;;;24.23;12.57;;;;;;;22.34;77.81;94842.31;5116181;28;20442;-79
2022/09/30 08:27:58;;;;;;;17.23;13.60;;;;;;;22.44;78.68;94864.09;5116121;28;20466;-79
2022/09/30 08:30:25;;;;;;;19.80;11.60;;;;;;;22.63;78.83;94862.50;5080577;28;20443;-78
2022/09/30 08:32:52;;;;;;;14.87;12.83;;;;;;;22.64;76.26;94858.78;5116171;28;20968;-78
2022/09/30 08:35:19;;;;;;;20.77;13.50;;;;;;;22.51;78.48;94872.97;5116223;28;20516;-78
2022/09/30 08:37:46;;;;;;;20.30;13.23;;;;;;;22.73;78.24;94879.78;5116087;28;20439;-78
2022/09/30 08:40:19;;;;;;;12.20;9.90;;;;;;;22.81;77.02;94865.41;5116055;28;20443;-79
2022/09/30 08:43:14;;;;;;;16.47;9.80;;;;;;;22.42;76.85;94861.63;5116231;28;20447;-78
2022/09/30 08:45:50;;;;;;;10.00;8.50;;;;;;;22.52;77.63;94866.56;5115794;28;20876;-79
2022/09/30 08:48:29;;;;;;;11.23;9.83;;;;;;;22.78;77.21;94871.13;5116270;28;20554;-78
2022/09/30 08:51:07;;;;;;;12.97;9.67;;;;;;;22.98;78.78;94863.97;5115921;28;20441;-78
2022/09/30 08:53:38;;;;;;;19.57;9.63;;;;;;;22.88;75.63;94868.09;5115536;28;20485;-78
2022/09/30 08:56:07;;;;;;;15.83;9.07;;;;;;;23.04;77.28;94870.34;5115620;28;20446;-79
2022/09/30 08:58:38;;;;;;;9.60;7.50;;;;;;;22.85;73.32;94880.03;5114625;28;20447;-78
2022/09/30 09:01:16;;;;;;;9.10;7.63;;;;;;;22.87;75.30;94872.63;5115449;28;20465;-78
2022/09/30 09:03:44;;;;;;;9.47;7.90;;;;;;;22.97;76.18;94873.03;5115547;28;20435;-78
2022/09/30 09:06:26;;;;;;;10.87;8.97;;;;;;;23.03;76.77;94890.91;5115425;28;20933;-79
2022/09/30 09:09:08;;;;;;;12.40;8.60;;;;;;;23.13;77.10;94875.28;5115423;28;20431;-79
2022/09/30 09:11:49;;;;;;;12.00;8.40;;;;;;;23.14;77.20;94873.44;5097123;28;20458;-78
2022/09/30 09:14:28;;;;;;;11.87;7.73;;;;;;;23.25;76.04;94882.66;5115355;28;20972;-79
2022/09/30 09:17:07;;;;;;;7.57;6.80;;;;;;;23.30;74.04;94891.72;5115277;28;20475;-79
2022/09/30 09:19:41;;;;;;;9.73;6.50;;;;;;;23.40;74.41;94896.63;5115086;28;20479;-80
2022/09/30 09:22:10;;;;;;;8.70;7.90;;;;;;;23.35;74.49;94891.91;5096110;28;20849;-78
2022/09/30 09:24:39;;;;;;;13.67;8.27;;;;;;;23.42;75.05;94892.75;5115383;28;20435;-79
2022/09/30 09:27:18;;;;;;;13.90;9.80;;;;;;;23.07;76.14;94891.31;5115671;28;20430;-79
2022/09/30 09:29:58;;;;;;;15.63;8.50;;;;;;;23.03;77.23;94890.91;5115299;28;20518;-79
2022/09/30 09:32:28;;;;;;;10.20;7.93;;;;;;;22.96;77.22;94870.56;5115282;28;20481;-78
2022/09/30 09:35:00;;;;;;;10.80;7.60;;;;;;;23.05;78.09;94877.34;5115001;28;20708;-80
2022/09/30 09:40:27;;;;;;;9.70;7.40;;;;;;;23.23;77.16;94890.09;5071679;28;20428;-80
2022/09/30 09:43:08;;;;;;;11.67;8.30;;;;;;;23.15;77.43;94889.28;5071574;28;20506;-79
2022/09/30 09:45:45;;;;;;;10.90;7.77;;;;;;;23.21;77.61;94892.16;5071783;28;20468;-80
2022/09/30 09:48:15;;;;;;;19.93;8.70;;;;;;;23.18;77.86;94880.00;5071902;28;20449;-79
2022/09/30 09:50:50;;;;;;;11.67;8.37;;;;;;;23.33;78.16;94880.59;5055362;28;20491;-78
2022/09/30 09:53:40;;;;;;;14.20;8.53;;;;;;;23.45;76.17;94876.25;5071691;28;20483;-80
2022/09/30 09:56:17;;;;;;;10.60;8.03;;;;;;;23.49;74.52;94884.69;5071605;28;20445;-80
2022/09/30 09:59:05;;;;;;;12.07;8.20;;;;;;;23.47;74.70;94882.22;5071406;28;20467;-80
2022/09/30 10:01:33;;;;;;;12.33;7.67;;;;;;;23.71;75.19;94886.13;5011564;28;20451;-80
2022/09/30 10:04:14;;;;;;;10.87;7.50;;;;;;;23.89;73.22;94888.09;5011758;28;20459;-79
2022/09/30 10:06:50;;;;;;;10.83;7.90;;;;;;;23.95;71.07;94892.59;5011609;28;20451;-79
2022/09/30 10:09:34;;;;;;;14.60;7.37;;;;;;;23.93;72.64;94886.63;5011488;28;20728;-78
2022/09/30 10:12:28;;;;;;;9.20;7.00;;;;;;;23.88;69.63;94878.41;5011501;28;20457;-79
2022/09/30 10:14:59;;;;;;;8.00;7.10;;;;;;;23.95;69.31;94884.56;5011404;28;21044;-79
2022/09/30 10:17:30;;;;;;;6.77;6.07;;;;;;;24.01;67.54;94873.00;5038145;28;20857;-80
2022/09/30 10:20:05;;;;;;;6.30;5.80;;;;;;;24.09;67.32;94869.25;5071193;28;20457;-79
2022/09/30 10:22:34;;;;;;;6.23;5.57;;;;;;;24.26;64.54;94877.59;5071336;28;20454;-79
2022/09/30 10:25:25;;;;;;;9.50;6.20;;;;;;;24.34;64.44;94869.34;5071012;28;20851;-78
2022/09/30 10:27:55;;;;;;;5.93;4.63;;;;;;;24.41;64.47;94867.44;4972207;28;20452;-80
2022/09/30 10:30:45;;;;;;;5.23;4.60;;;;;;;24.54;61.88;94866.53;4971984;28;20473;-79
2022/09/30 10:33:18;;;;;;;4.30;3.80;;;;;;;24.59;57.84;94840.72;4939730;28;20489;-81
2022/09/30 10:35:56;;;;;;;5.70;4.20;;;;;;;24.55;57.76;94831.44;4972389;28;20472;-79
2022/09/30 10:38:25;;;;;;;8.80;4.27;;;;;;;24.58;58.73;94836.38;4993750;28;20497;-80
2022/09/30 10:40:52;;;;;;;6.27;3.43;;;;;;;24.69;57.02;94838.34;5030798;28;20474;-79
2022/09/30 10:43:26;;;;;;;4.90;4.43;;;;;;;24.77;57.03;94839.94;4997588;28;20442;-79
2022/09/30 10:45:53;;;;;;;8.10;3.90;;;;;;;24.89;54.98;94840.88;5030931;28;20453;-80
2022/09/30 10:48:25;;;;;;;5.47;4.93;;;;;;;25.00;55.66;94837.50;5030772;28;20945;-80
2022/09/30 10:50:53;;;;;;;8.90;5.70;;;;;;;25.04;59.31;94839.75;4998238;28;20497;-81
2022/09/30 10:53:24;;;;;;;12.10;6.37;;;;;;;24.80;58.80;94841.38;5030535;28;20566;-80
2022/09/30 10:55:53;;;;;;;11.23;6.40;;;;;;;24.68;59.18;94847.44;5030499;28;20439;-81
2022/09/30 10:58:28;;;;;;;8.83;5.13;;;;;;;24.56;58.83;94849.19;5030597;28;20451;-80
2022/09/30 11:01:00;;;;;;;7.67;5.73;;;;;;;24.48;59.07;94845.94;5030579;28;20438;-79
2022/09/30 11:03:34;;;;;;;8.50;6.23;;;;;;;24.41;59.49;94846.00;5036919;28;20852;-78
2022/09/30 11:06:01;;;;;;;6.20;4.70;;;;;;;24.47;58.21;94847.81;5113320;28;20533;-80
2022/09/30 11:08:36;;;;;;;5.60;4.43;;;;;;;24.47;58.28;94839.75;5113113;28;20457;-80
2022/09/30 11:11:09;;;;;;;6.20;4.70;;;;;;;24.56;56.75;94842.97;5113031;28;20446;-79
2022/09/30 11:13:43;;;;;;;12.33;5.10;;;;;;;24.65;57.67;94845.22;5113461;28;20482;-80
2022/09/30 11:16:20;;;;;;;4.97;4.50;;;;;;;24.74;57.25;94836.88;5112901;28;20478;-81
2022/09/30 11:18:56;;;;;;;7.33;5.87;;;;;;;24.80;58.35;94842.19;5113222;28;20449;-79
2022/09/30 11:21:29;;;;;;;7.10;5.23;;;;;;;24.85;59.47;94838.84;5112436;28;20438;-79
2022/09/30 11:24:03;;;;;;;7.57;4.80;;;;;;;24.92;59.17;94832.41;5113039;28;20458;-80
2022/09/30 11:26:41;;;;;;;6.80;4.30;;;;;;;24.97;57.37;94839.78;5112991;28;20451;-78
2022/09/30 11:29:23;;;;;;;5.60;3.47;;;;;;;25.02;53.44;94842.66;5113097;28;20484;-79
2022/09/30 11:31:58;;;;;;;9.60;4.80;;;;;;;25.08;54.20;94843.63;5112481;28;21018;-79
2022/09/30 11:34:40;;;;;;;4.20;3.90;;;;;;;25.05;53.73;94846.75;5113018;28;20485;-80
2022/09/30 11:37:15;;;;;;;8.50;3.60;;;;;;;25.09;53.40;94853.34;5078618;28;20447;-79
2022/09/30 11:40:04;;;;;;;7.37;3.97;;;;;;;25.11;52.74;94841.31;5113036;28;20454;-80
2022/09/30 11:42:38;;;;;;;7.63;3.90;;;;;;;25.14;53.42;94851.63;5113075;28;20442;-79
2022/09/30 11:45:15;;;;;;;3.60;3.03;;;;;;;25.16;50.76;94849.56;5112685;28;20945;-80
2022/09/30 11:47:55;;;;;;;3.60;3.30;;;;;;;25.26;52.71;94854.41;5112737;28;20470;-80
2022/09/30 11:50:35;;;;;;;3.20;3.00;;;;;;;25.36;51.86;94848.53;5112819;28;20434;-80
2022/09/30 11:53:19;;;;;;;5.07;3.50;;;;;;;25.40;51.87;94852.41;5112916;28;20463;-80
2022/09/30 11:55:59;;;;;;;10.33;4.10;;;;;;;25.34;52.01;94846.06;5113417;28;20445;-79
2022/09/30 11:58:33;;;;;;;5.43;3.97;;;;;;;25.27;52.96;94840.75;5112952;28;20447;-81
2022/09/30 12:01:13;;;;;;;5.40;4.23;;;;;;;25.22;52.31;94850.53;5078288;28;20451;-81